SAMM/LGS METAR and TAF weather

Enter ICAO airport designator
Station Type Date Time Source
SAMM METAR 2019/05/22 14:35 UTC NOAA

SAMM 221435Z 11004KT 0700 BCFG M04/M06 Q1028


Station Type Date Time Source
SAMM Decoded METAR 2019/05/22 14:35 UTC NOAA

Malargue Aerodrome, Argentina (SAMM) 35-30S 069-35W 1425M
May 22, 2019 - 10:35 AM EDT / 2019.05.22 1435 UTC
Wind: from the ESE (110 degrees) at 5 MPH (4 KT):0
Visibility: less than 1 mile:0
Weather: patches of fog
Temperature: 24 F (-4 C)
Windchill: 17 F (-8 C):1
Dew Point: 21 F (-6 C)
Relative Humidity: 85%
Pressure (altimeter): 30.36 in. Hg (1028 hPa)
ob: SAMM 221435Z 11004KT 0700 BCFG M04/M06 Q1028
cycle: 14

Station Type Date Time Source
SAMM TAF UTC NOAA

Error!

Example: see airport list